createdAt,value
2022-09-12T00:03:53.152Z,6.59
2022-09-12T00:08:57.568Z,6.61
2022-09-12T00:14:01.538Z,6.55
2022-09-12T00:19:05.605Z,6.56
2022-09-12T00:24:09.709Z,6.44
2022-09-12T00:29:20.491Z,6.35
2022-09-12T00:34:23.178Z,6.32
2022-09-12T00:39:25.918Z,6.25
2022-09-12T00:44:28.974Z,6.25
2022-09-12T00:49:50.191Z,6.23
2022-09-12T00:55:29.369Z,6.19
2022-09-12T01:00:32.296Z,6.13
2022-09-12T01:05:37.349Z,6.10
2022-09-12T01:10:41.177Z,6.07
2022-09-12T01:15:44.222Z,5.94
2022-09-12T01:21:03.978Z,5.84
2022-09-12T01:26:31.853Z,5.70
2022-09-12T01:32:01.924Z,5.59
2022-09-12T01:37:15.852Z,5.38
2022-09-12T01:42:24.526Z,5.50
2022-09-12T01:47:44.371Z,5.50
2022-09-12T01:52:56.900Z,5.40
2022-09-12T01:58:17.752Z,5.42
2022-09-12T02:03:34.226Z,5.37
2022-09-12T02:08:53.913Z,5.29
2022-09-12T02:14:07.968Z,5.36
2022-09-12T02:19:17.313Z,5.40
2022-09-12T02:24:21.336Z,5.39
2022-09-12T02:29:24.145Z,5.28
2022-09-12T02:34:46.335Z,5.34
2022-09-12T02:39:49.066Z,5.43
2022-09-12T02:44:53.481Z,5.44
2022-09-12T02:49:57.482Z,5.38
2022-09-12T02:55:00.558Z,5.45
2022-09-12T03:00:05.214Z,5.54
2022-09-12T03:05:52.617Z,5.45
2022-09-12T03:11:15.634Z,5.44
2022-09-12T03:16:33.395Z,5.50
2022-09-12T03:21:49.124Z,5.50
2022-09-12T03:27:00.729Z,5.34
2022-09-12T03:32:03.612Z,5.36
2022-09-12T03:37:08.971Z,5.27
2022-09-12T03:42:11.754Z,5.37
2022-09-12T03:47:14.474Z,5.09
2022-09-12T03:52:17.637Z,4.97
2022-09-12T03:57:21.487Z,5.01
2022-09-12T04:02:28.696Z,4.84
2022-09-12T04:07:31.448Z,4.93
2022-09-12T04:12:36.054Z,4.86
2022-09-12T04:17:38.929Z,4.84
2022-09-12T04:22:42.525Z,4.85
2022-09-12T04:27:49.770Z,4.73
2022-09-12T04:32:53.430Z,5.01
2022-09-12T04:37:56.181Z,5.02
2022-09-12T04:43:01.799Z,5.02
2022-09-12T04:48:04.737Z,4.90
2022-09-12T04:53:07.933Z,4.99
2022-09-12T04:58:19.526Z,5.09
2022-09-12T05:03:25.226Z,5.29
2022-09-12T05:08:30.759Z,5.30
2022-09-12T05:13:34.243Z,5.35
2022-09-12T05:18:37.620Z,5.28
2022-09-12T05:23:43.393Z,5.55
2022-09-12T05:40:42.503Z,5.85
2022-09-12T05:45:45.475Z,5.97
2022-09-12T05:51:01.913Z,5.93
2022-09-12T05:56:12.212Z,6.05
2022-09-12T06:01:19.700Z,5.88
2022-09-12T06:06:24.845Z,5.63
2022-09-12T06:11:29.738Z,5.46
2022-09-12T06:16:34.097Z,5.41
2022-09-12T06:21:38.273Z,5.23
2022-09-12T06:26:41.057Z,5.21
2022-09-12T06:31:44.491Z,5.16
2022-09-12T06:36:53.947Z,5.29
2022-09-12T06:41:56.723Z,5.28
2022-09-12T06:47:09.295Z,5.25
2022-09-12T06:52:11.996Z,5.34
2022-09-12T06:57:15.106Z,5.21
2022-09-12T07:02:17.842Z,5.24
2022-09-12T07:07:20.881Z,5.41
2022-09-12T07:12:23.547Z,5.44
2022-09-12T07:17:26.216Z,5.58
2022-09-12T07:22:31.945Z,5.84
2022-09-12T07:27:34.854Z,6.52
2022-09-12T07:32:37.548Z,6.57
2022-09-12T07:37:40.337Z,6.76
2022-09-12T07:42:43.161Z,7.23
2022-09-12T07:47:45.865Z,6.69
2022-09-12T07:52:48.601Z,6.36
2022-09-12T07:57:52.731Z,6.09
2022-09-12T08:02:55.593Z,6.04
2022-09-12T08:07:58.399Z,6.20
2022-09-12T08:13:01.087Z,6.25
2022-09-12T08:18:03.938Z,6.12
2022-09-12T08:23:06.715Z,6.34
2022-09-12T08:28:09.501Z,6.53
2022-09-12T08:33:12.367Z,6.57
2022-09-12T08:38:15.055Z,6.62
2022-09-12T08:43:34.200Z,6.62
2022-09-12T08:48:37.311Z,6.45
2022-09-12T08:53:40.631Z,6.48
2022-09-12T08:58:45.345Z,6.66
2022-09-12T09:03:57.042Z,6.88
2022-09-12T09:09:05.336Z,7.03
2022-09-12T09:14:51.305Z,7.32
2022-09-12T09:20:41.614Z,7.70
2022-09-12T09:26:15.317Z,7.69
2022-09-12T09:31:23.448Z,7.42
2022-09-12T09:36:47.459Z,7.19
2022-09-12T09:42:10.849Z,7.22
2022-09-12T09:47:13.657Z,7.28
2022-09-12T09:52:18.109Z,7.18
2022-09-12T09:57:37.635Z,6.82
2022-09-12T10:02:47.197Z,6.69
2022-09-12T10:07:53.512Z,6.43
2022-09-12T10:13:09.469Z,6.63
2022-09-12T10:18:13.014Z,7.08
2022-09-12T10:23:38.278Z,7.46
2022-09-12T10:28:51.585Z,7.35
2022-09-12T10:33:55.044Z,7.05
2022-09-12T10:39:01.024Z,6.58
2022-09-12T10:44:14.801Z,6.37
2022-09-12T10:49:27.918Z,6.25
2022-09-12T10:54:31.221Z,6.24
2022-09-12T10:59:45.796Z,6.18
2022-09-12T11:04:57.505Z,6.19
2022-09-12T11:10:15.197Z,6.14
2022-09-12T11:15:35.761Z,6.10
2022-09-12T11:20:44.685Z,6.12
2022-09-12T11:25:52.986Z,6.23
2022-09-12T11:31:25.962Z,6.76
2022-09-12T11:36:57.935Z,6.61
2022-09-12T11:42:04.109Z,6.37
2022-09-12T11:47:08.756Z,6.19
2022-09-12T11:52:11.468Z,5.97
2022-09-12T11:57:36.136Z,5.94
2022-09-12T12:03:04.649Z,5.82
2022-09-12T12:08:07.487Z,5.74
2022-09-12T12:13:34.916Z,5.53
2022-09-12T12:18:39.112Z,5.25
2022-09-12T12:24:09.989Z,5.02
2022-09-12T12:29:18.855Z,4.79
2022-09-12T12:34:28.816Z,4.76
2022-09-12T12:39:34.503Z,4.76
2022-09-12T12:44:46.161Z,4.66
2022-09-12T12:50:11.116Z,4.81
2022-09-12T12:55:40.219Z,4.79
2022-09-12T13:00:43.485Z,4.68
2022-09-12T13:06:02.337Z,4.62
2022-09-12T13:11:32.804Z,4.51
2022-09-12T13:16:54.120Z,4.34
2022-09-12T13:22:00.586Z,4.36
2022-09-12T13:27:03.448Z,4.47
2022-09-12T13:32:07.363Z,4.52
2022-09-12T13:37:13.021Z,4.62
2022-09-12T13:42:50.072Z,4.70
2022-09-12T13:47:59.056Z,4.74
2022-09-12T13:53:13.680Z,4.65
2022-09-12T13:58:24.360Z,4.67
2022-09-12T14:03:47.622Z,4.75
2022-09-12T14:08:50.462Z,4.76
2022-09-12T14:13:53.645Z,4.66
2022-09-12T14:18:57.353Z,4.67
2022-09-12T14:24:01.159Z,4.78
2022-09-12T14:29:08.019Z,4.82
2022-09-12T14:34:20.848Z,4.85
2022-09-12T14:39:38.369Z,4.83
2022-09-12T14:44:41.906Z,4.86
2022-09-12T14:49:47.359Z,4.89
2022-09-12T14:55:15.553Z,4.93
2022-09-12T15:00:40.944Z,4.90
2022-09-12T15:05:50.123Z,4.94
2022-09-12T15:10:53.133Z,4.95
2022-09-12T15:15:58.085Z,4.83
2022-09-12T15:21:06.514Z,4.83
2022-09-12T15:26:16.051Z,4.85
2022-09-12T15:31:27.325Z,4.84
2022-09-12T15:36:30.389Z,4.83
2022-09-12T15:41:43.793Z,4.83
2022-09-12T15:46:49.529Z,4.81
2022-09-12T15:51:53.990Z,4.84
2022-09-12T15:56:59.856Z,4.85
2022-09-12T16:02:10.886Z,4.90
2022-09-12T16:07:13.693Z,4.83
2022-09-12T16:12:16.499Z,4.90
2022-09-12T16:17:24.941Z,4.89
2022-09-12T16:22:28.148Z,4.93
2022-09-12T16:27:31.711Z,4.93
2022-09-12T16:32:34.763Z,4.94
2022-09-12T16:37:37.607Z,4.92
2022-09-12T16:42:43.636Z,4.83
2022-09-12T16:47:46.726Z,4.79
2022-09-12T16:52:49.459Z,4.87
2022-09-12T16:57:52.311Z,4.90
2022-09-12T17:02:55.056Z,4.90
2022-09-12T17:07:57.826Z,4.85
2022-09-12T17:13:00.569Z,4.85
2022-09-12T17:18:03.303Z,4.73
2022-09-12T17:23:09.629Z,4.84
2022-09-12T17:28:12.680Z,4.87
2022-09-12T17:33:15.854Z,4.87
2022-09-12T17:38:24.564Z,4.86
2022-09-12T17:43:27.963Z,4.84
2022-09-12T17:48:31.227Z,4.84
2022-09-12T17:53:34.950Z,4.84
2022-09-12T17:58:38.213Z,4.83
2022-09-12T18:03:40.956Z,4.81
2022-09-12T18:08:43.764Z,4.82
2022-09-12T18:13:46.741Z,4.82
2022-09-12T18:18:51.398Z,4.82
2022-09-12T18:23:54.348Z,4.80
2022-09-12T18:28:57.716Z,4.79
2022-09-12T18:34:01.370Z,4.80
2022-09-12T18:39:04.099Z,4.83
2022-09-12T18:44:08.079Z,4.82
2022-09-12T18:49:11.400Z,4.73
2022-09-12T18:54:14.952Z,4.67
2022-09-12T18:59:17.853Z,4.74
2022-09-12T19:04:20.668Z,4.73
2022-09-12T19:09:23.655Z,4.65
2022-09-12T19:14:27.274Z,4.67
2022-09-12T19:19:30.085Z,4.63
2022-09-12T19:24:33.081Z,4.62
2022-09-12T19:29:35.854Z,4.60
2022-09-12T19:34:38.547Z,4.61
2022-09-12T19:39:44.459Z,4.55
2022-09-12T19:44:47.322Z,4.60
2022-09-12T19:49:50.032Z,4.61
2022-09-12T19:54:52.741Z,4.65
2022-09-12T19:59:55.899Z,4.64
2022-09-12T20:04:58.729Z,4.66
2022-09-12T20:10:01.535Z,4.69
2022-09-12T20:15:06.454Z,4.71
2022-09-12T20:20:10.775Z,4.72
2022-09-12T20:25:13.488Z,4.70
2022-09-12T20:30:16.667Z,4.68
2022-09-12T20:35:19.507Z,4.75
2022-09-12T20:40:22.298Z,4.74
2022-09-12T20:45:25.148Z,4.72
2022-09-12T20:50:28.181Z,4.73
2022-09-12T20:55:30.910Z,4.76
2022-09-12T21:00:33.541Z,4.73
2022-09-12T21:05:36.265Z,4.72
2022-09-12T21:10:42.274Z,4.71
2022-09-12T21:15:45.551Z,4.73
2022-09-12T21:20:55.301Z,4.76
2022-09-12T21:25:59.610Z,4.73
2022-09-12T21:31:02.348Z,4.69
2022-09-12T21:36:06.221Z,4.71
2022-09-12T21:41:16.211Z,4.73
2022-09-12T21:46:18.996Z,4.69
2022-09-12T21:51:22.211Z,4.62
2022-09-12T21:56:24.849Z,4.66
2022-09-12T22:01:27.668Z,4.67
2022-09-12T22:06:30.490Z,4.68
2022-09-12T22:11:33.382Z,4.72
2022-09-12T22:16:36.071Z,4.70
2022-09-12T22:21:58.656Z,4.67
2022-09-12T22:27:04.132Z,4.65
2022-09-12T22:32:06.579Z,4.62
2022-09-12T22:37:11.637Z,4.59
2022-09-12T22:42:14.767Z,4.61
2022-09-12T22:47:20.351Z,4.57
2022-09-12T22:52:23.641Z,4.62
2022-09-12T22:57:26.324Z,4.60
2022-09-12T23:02:30.041Z,4.56
2022-09-12T23:07:33.563Z,4.53
2022-09-12T23:12:36.332Z,4.54
2022-09-12T23:17:39.219Z,4.51
2022-09-12T23:22:42.090Z,4.52
2022-09-12T23:27:44.908Z,4.53
2022-09-12T23:32:50.547Z,4.58
2022-09-12T23:37:53.239Z,4.59
2022-09-12T23:42:56.271Z,4.61
2022-09-12T23:47:59.282Z,4.64
2022-09-12T23:53:02.009Z,4.67
2022-09-12T23:58:04.748Z,4.70
